Time;durP1;ratioP1;P1;durP2;ratioP2;P2;SDS_P1;SDS_P2;PMS_P1;PMS_P2;Temp;Humidity;BMP_temperature;BMP_pressure;BME280_temperature;BME280_humidity;BME280_pressure;Samples;Min_cycle;Max_cycle;Signal;HPM_P1;HPM_P2
2021/10/23 00:01:55;;;;;;;6.15;1.20;;;;;;;9.10;59.90;99991.75;4906115;29;20049;-61
2021/10/23 00:04:26;;;;;;;3.70;1.40;;;;;;;9.05;59.96;99990.00;4913824;29;20036;-61
2021/10/23 00:06:56;;;;;;;2.60;1.15;;;;;;;8.98;59.43;100004.38;4913666;29;20056;-62
2021/10/23 00:09:25;;;;;;;2.38;1.02;;;;;;;8.88;59.12;100002.56;4905646;29;20482;-61
2021/10/23 00:11:54;;;;;;;5.13;1.38;;;;;;;8.93;60.13;100011.09;4918094;29;20048;-62
2021/10/23 00:14:24;;;;;;;6.57;1.42;;;;;;;8.96;58.94;100011.13;4914840;29;20145;-62
2021/10/23 00:16:53;;;;;;;2.92;1.33;;;;;;;8.90;59.32;100016.16;4935455;29;20055;-61
2021/10/23 00:19:22;;;;;;;6.00;1.50;;;;;;;8.96;58.54;100016.22;4968931;28;20047;-61
2021/10/23 00:21:53;;;;;;;4.90;1.20;;;;;;;8.98;57.97;100014.56;4976708;28;20480;-62
2021/10/23 00:24:23;;;;;;;7.47;1.27;;;;;;;8.98;58.72;100024.72;4975990;28;20125;-62
2021/10/23 00:26:52;;;;;;;2.97;1.23;;;;;;;8.99;58.18;100029.00;4976799;28;20066;-61
2021/10/23 00:29:22;;;;;;;5.85;1.40;;;;;;;9.00;58.88;100027.31;4960016;28;20490;-62
2021/10/23 00:31:57;;;;;;;4.63;1.40;;;;;;;8.89;58.59;100028.88;4976993;28;20162;-61
2021/10/23 00:34:26;;;;;;;3.17;1.30;;;;;;;8.86;58.11;100027.13;4975000;28;20054;-62
2021/10/23 00:37:00;;;;;;;5.30;1.23;;;;;;;8.96;58.82;100031.50;4975541;28;20039;-62
2021/10/23 00:39:30;;;;;;;3.90;1.50;;;;;;;9.01;58.32;100029.88;4481298;23;20493;-62
2021/10/23 00:42:00;;;;;;;4.13;1.30;;;;;;;9.03;57.79;100030.72;4975622;28;20047;-63
2021/10/23 00:44:35;;;;;;;3.13;1.33;;;;;;;9.06;58.57;100033.31;4975738;28;20057;-63
2021/10/23 00:47:06;;;;;;;4.78;1.45;;;;;;;9.00;58.62;100032.41;4977032;28;20097;-63
2021/10/23 00:49:36;;;;;;;3.38;1.25;;;;;;;8.91;58.89;100033.13;4976309;28;20082;-63
2021/10/23 00:52:09;;;;;;;3.08;1.15;;;;;;;9.01;59.61;100034.09;4980903;28;20089;-63
2021/10/23 00:54:39;;;;;;;3.78;1.30;;;;;;;8.95;58.67;100032.31;4975617;28;20395;-63
2021/10/23 00:57:09;;;;;;;3.22;1.38;;;;;;;8.90;59.46;100028.88;4975909;28;20077;-63
2021/10/23 00:59:38;;;;;;;3.22;1.30;;;;;;;8.74;59.89;100032.06;4977102;28;20043;-63
2021/10/23 01:02:08;;;;;;;4.53;1.35;;;;;;;8.69;60.87;100031.16;4977944;28;20513;-63
2021/10/23 01:04:42;;;;;;;2.80;1.20;;;;;;;8.43;60.27;100032.53;4976705;28;20110;-63
2021/10/23 01:07:16;;;;;;;3.83;1.42;;;;;;;8.37;61.25;100038.41;4977360;28;20085;-63
2021/10/23 01:09:46;;;;;;;3.80;1.40;;;;;;;8.42;60.65;100035.91;4975047;28;20057;-63
2021/10/23 01:12:19;;;;;;;4.75;1.42;;;;;;;8.46;60.54;100035.13;4974283;28;20043;-63
2021/10/23 01:14:48;;;;;;;4.53;1.27;;;;;;;8.30;60.10;100031.50;4975645;28;20051;-63
2021/10/23 01:17:21;;;;;;;2.78;1.38;;;;;;;8.33;60.93;100035.78;4975307;28;20539;-63
2021/10/23 01:19:56;;;;;;;5.25;1.30;;;;;;;8.21;61.17;100043.19;4973922;28;20059;-63
2021/10/23 01:22:29;;;;;;;2.80;1.38;;;;;;;8.19;60.87;100047.41;4974544;28;20042;-63
2021/10/23 01:24:59;;;;;;;6.07;1.98;;;;;;;8.14;60.96;100044.81;4978259;28;20049;-62
2021/10/23 01:27:31;;;;;;;;;;;;;;;8.25;60.10;100044.97;4976054;28;20480;-63
2021/10/23 01:30:04;;;;;;;4.55;1.10;;;;;;;8.33;59.34;100048.47;4977507;28;20024;-63
2021/10/23 01:32:34;;;;;;;7.10;1.27;;;;;;;8.48;59.62;100041.06;4978764;28;20055;-63
2021/10/23 01:35:10;;;;;;;2.72;1.20;;;;;;;8.48;59.03;100046.16;4978492;28;20059;-62
2021/10/23 01:37:44;;;;;;;3.78;1.20;;;;;;;8.57;58.64;100046.28;4976002;28;20047;-62
2021/10/23 01:40:16;;;;;;;3.85;1.35;;;;;;;8.70;58.27;100060.88;4975272;28;20059;-63
2021/10/23 01:42:46;;;;;;;3.95;1.35;;;;;;;8.61;57.94;100058.22;4975587;28;20045;-63
2021/10/23 01:45:16;;;;;;;5.65;1.48;;;;;;;8.73;57.99;100060.94;4975178;28;20047;-62
2021/10/23 01:47:48;;;;;;;3.05;1.05;;;;;;;8.73;58.07;100063.47;4974730;28;20404;-63
2021/10/23 01:50:21;;;;;;;4.28;1.20;;;;;;;8.81;57.86;100072.03;4975076;28;20058;-62
2021/10/23 01:52:51;;;;;;;3.88;1.27;;;;;;;8.74;57.44;100072.78;4976927;28;20052;-63
2021/10/23 01:55:22;;;;;;;4.78;1.95;;;;;;;8.74;58.08;100072.78;4978486;28;20404;-63
2021/10/23 01:57:51;;;;;;;4.07;1.30;;;;;;;8.70;57.66;100083.78;4974954;28;20125;-63
2021/10/23 02:00:20;;;;;;;4.95;1.20;;;;;;;8.60;58.55;100082.81;4975458;28;20035;-64
2021/10/23 02:02:53;;;;;;;4.90;1.33;;;;;;;8.64;58.50;100083.69;4964420;28;20050;-62
2021/10/23 02:05:24;;;;;;;3.25;1.30;;;;;;;8.65;58.76;100085.41;4973940;28;20109;-64
2021/10/23 02:07:56;;;;;;;3.45;1.20;;;;;;;8.58;58.71;100084.47;4970136;28;20047;-63
2021/10/23 02:10:29;;;;;;;4.18;1.30;;;;;;;8.50;59.26;100090.28;4975418;28;20046;-62
2021/10/23 02:13:01;;;;;;;6.30;1.45;;;;;;;8.50;59.42;100090.28;4974238;28;20051;-63
2021/10/23 02:15:36;;;;;;;4.40;1.30;;;;;;;8.39;59.84;100091.81;4975377;28;20125;-62
2021/10/23 02:18:18;;;;;;;;;;;;;;;;;;;;;
2021/10/23 02:21:12;;;;;;;3.53;1.20;;;;;;;7.98;61.23;100099.66;4423083;29;20082;-63
2021/10/23 02:23:42;;;;;;;2.90;1.20;;;;;;;8.04;60.75;100104.81;4951871;29;20437;-61
2021/10/23 02:26:11;;;;;;;4.32;1.17;;;;;;;7.94;61.57;100113.09;4955167;29;20047;-60
2021/10/23 02:28:43;;;;;;;2.97;1.02;;;;;;;7.92;61.65;100119.00;4955157;29;20039;-60
2021/10/23 02:31:16;;;;;;;4.97;1.27;;;;;;;7.86;62.31;100114.69;4953972;29;20134;-61
2021/10/23 02:33:45;;;;;;;5.70;1.50;;;;;;;7.78;62.26;100130.59;4954603;29;20393;-61
2021/10/23 02:36:20;;;;;;;3.30;1.42;;;;;;;7.78;62.54;100125.53;4954486;29;20110;-60
2021/10/23 02:38:49;;;;;;;3.22;1.33;;;;;;;7.83;63.29;100116.31;4954263;29;20043;-60
2021/10/23 02:41:24;;;;;;;4.30;1.27;;;;;;;7.78;63.49;100128.94;4955713;29;20055;-60
2021/10/23 02:43:58;;;;;;;5.95;1.45;;;;;;;7.85;63.50;100123.13;4955552;29;20046;-60
2021/10/23 02:46:28;;;;;;;6.20;1.48;;;;;;;7.89;63.02;100122.34;4955585;29;20047;-60
2021/10/23 02:48:59;;;;;;;5.57;1.35;;;;;;;7.82;64.01;100107.81;4955973;29;20073;-60
2021/10/23 02:51:30;;;;;;;3.47;1.48;;;;;;;7.95;64.14;100114.84;4955766;28;20404;-62
2021/10/23 02:54:03;;;;;;;6.03;1.40;;;;;;;7.87;63.77;100123.16;4966893;28;20536;-61
2021/10/23 02:56:33;;;;;;;6.65;1.50;;;;;;;7.77;63.56;100124.69;4955687;29;20496;-60
2021/10/23 02:59:06;;;;;;;4.53;1.30;;;;;;;7.79;63.32;100130.66;4955755;29;20176;-60
2021/10/23 03:01:35;;;;;;;3.70;1.60;;;;;;;7.58;64.10;100132.81;4938318;29;20055;-60
2021/10/23 03:04:08;;;;;;;;;;;;;;;7.33;64.13;100135.72;4956421;29;20473;-60
2021/10/23 03:06:44;;;;;;;1.98;1.02;;;;;;;7.08;65.39;100133.53;4953997;29;19997;-60
2021/10/23 03:09:17;;;;;;;7.80;1.55;;;;;;;7.06;65.33;100138.53;4954450;29;20058;-60
2021/10/23 03:11:47;;;;;;;7.68;1.25;;;;;;;6.86;65.41;100137.28;4953677;29;20047;-60
2021/10/23 03:14:16;;;;;;;2.83;1.42;;;;;;;6.74;66.23;100129.41;4953730;29;20051;-60
2021/10/23 03:16:46;;;;;;;7.53;1.50;;;;;;;6.67;66.72;100130.94;4954434;29;20043;-60
2021/10/23 03:19:16;;;;;;;;;;;;;;;6.46;66.48;100133.00;4953250;29;20039;-61
2021/10/23 03:21:49;;;;;;;;;;;;;;;6.28;66.54;100140.19;4953866;29;20447;-60
2021/10/23 03:24:22;;;;;;;4.78;1.10;;;;;;;6.14;67.64;100136.47;4954164;29;19928;-60
2021/10/23 03:26:51;;;;;;;5.40;1.27;;;;;;;6.20;67.17;100145.88;4952947;29;20441;-60
2021/10/23 03:29:23;;;;;;;3.47;1.45;;;;;;;6.12;67.79;100158.38;4953637;29;20051;-60
2021/10/23 03:31:55;;;;;;;2.63;1.40;;;;;;;6.06;67.76;100158.22;4949663;29;20138;-60
2021/10/23 03:34:28;;;;;;;5.38;1.55;;;;;;;6.02;68.41;100161.53;4942587;29;20047;-60
2021/10/23 03:37:05;;;;;;;2.63;1.38;;;;;;;5.99;68.86;100161.44;4936044;29;20063;-60
2021/10/23 03:39:38;;;;;;;4.50;1.25;;;;;;;6.10;69.08;100165.06;4939636;29;20503;-60
2021/10/23 03:42:10;;;;;;;3.47;1.17;;;;;;;6.20;68.99;100167.03;4954000;28;20081;-60
2021/10/23 03:44:39;;;;;;;4.90;1.30;;;;;;;6.16;69.14;100167.78;4942437;29;20036;-60
2021/10/23 03:47:12;;;;;;;4.70;1.73;;;;;;;6.05;69.03;100171.72;4957416;29;20043;-60
2021/10/23 03:49:42;;;;;;;4.70;1.40;;;;;;;6.01;69.54;100170.78;4957649;29;20051;-60
2021/10/23 03:52:13;;;;;;;4.30;1.38;;;;;;;5.91;69.76;100166.31;4958319;29;20043;-60
2021/10/23 03:54:46;;;;;;;6.63;1.67;;;;;;;5.96;69.64;100174.00;4957497;29;20134;-60
2021/10/23 03:57:35;;;;;;;4.03;1.40;;;;;;;6.02;69.49;100182.63;4958209;29;20402;-60
2021/10/23 04:00:06;;;;;;;3.95;1.70;;;;;;;5.97;69.60;100186.72;4859892;29;20503;-60
2021/10/23 04:02:46;;;;;;;4.53;1.83;;;;;;;5.92;69.56;100179.84;4848325;29;20056;-60
2021/10/23 04:05:15;;;;;;;3.88;1.05;;;;;;;5.78;69.83;100191.25;4860290;29;20054;-60
2021/10/23 04:07:46;;;;;;;5.05;1.52;;;;;;;5.71;69.86;100184.31;4859098;29;20049;-60
2021/10/23 04:10:15;;;;;;;3.00;1.50;;;;;;;5.59;70.02;100189.88;4860475;29;20049;-60
2021/10/23 04:12:44;;;;;;;4.72;1.40;;;;;;;5.45;69.90;100187.81;4846119;29;20052;-60
2021/10/23 04:15:14;;;;;;;5.97;1.70;;;;;;;5.30;69.98;100189.06;4859372;29;20120;-60
2021/10/23 04:17:43;;;;;;;5.57;1.85;;;;;;;5.32;70.50;100199.25;4859142;29;20054;-61
2021/10/23 04:20:13;;;;;;;3.25;1.77;;;;;;;5.18;70.93;100198.84;4851427;29;20080;-62
2021/10/23 04:22:42;;;;;;;4.63;1.50;;;;;;;5.36;70.42;100201.03;4855522;29;20045;-60
2021/10/23 04:25:13;;;;;;;3.60;1.70;;;;;;;5.38;70.50;100200.28;4903765;29;20486;-60
2021/10/23 04:27:45;;;;;;;3.13;1.38;;;;;;;5.46;70.26;100202.16;4919863;29;20044;-60
2021/10/23 04:30:14;;;;;;;5.93;1.35;;;;;;;5.56;69.72;100204.13;4901042;29;20076;-60
2021/10/23 04:32:46;;;;;;;5.25;1.95;;;;;;;5.49;69.83;100202.25;4916726;29;20139;-60
2021/10/23 04:35:16;;;;;;;3.92;2.00;;;;;;;5.51;70.07;100210.75;4918727;29;20100;-60
2021/10/23 04:37:45;;;;;;;5.35;1.63;;;;;;;5.50;69.68;100209.88;4919911;29;20080;-60
2021/10/23 04:40:16;;;;;;;5.50;2.08;;;;;;;5.39;69.91;100217.19;4919718;29;20143;-60
2021/10/23 04:42:45;;;;;;;5.80;1.88;;;;;;;5.50;69.95;100212.41;4917615;29;20049;-61
2021/10/23 04:45:17;;;;;;;4.20;1.70;;;;;;;5.48;70.31;100215.72;4918866;29;20052;-60
2021/10/23 04:47:50;;;;;;;4.38;2.10;;;;;;;5.58;70.47;100217.69;4918733;29;20103;-60
2021/10/23 04:50:19;;;;;;;5.85;1.80;;;;;;;5.54;69.86;100231.09;4916584;29;20047;-61
2021/10/23 04:52:51;;;;;;;3.25;1.50;;;;;;;5.48;69.64;100229.22;4917959;29;20171;-60
2021/10/23 04:55:28;;;;;;;4.82;2.05;;;;;;;5.51;69.70;100231.00;4918169;29;20513;-60
2021/10/23 04:57:58;;;;;;;4.68;1.77;;;;;;;5.57;69.64;100231.16;4917902;29;20059;-60
2021/10/23 05:00:27;;;;;;;3.92;1.60;;;;;;;5.53;69.21;100235.28;4918143;29;20143;-60
2021/10/23 05:02:57;;;;;;;5.18;1.60;;;;;;;5.39;69.61;100237.44;4918042;29;20048;-60
2021/10/23 05:05:29;;;;;;;3.22;1.58;;;;;;;5.24;69.76;100231.94;4917588;29;20052;-60
2021/10/23 05:08:01;;;;;;;3.97;1.42;;;;;;;5.18;70.01;100229.19;4917494;29;20055;-60
2021/10/23 05:10:33;;;;;;;3.20;1.40;;;;;;;5.16;69.87;100243.47;4917885;29;20028;-60
2021/10/23 05:13:05;;;;;;;5.63;1.75;;;;;;;4.87;69.40;100241.72;4918831;29;20438;-60
2021/10/23 05:15:38;;;;;;;6.13;1.48;;;;;;;4.58;70.49;100240.00;4908188;29;20056;-60
2021/10/23 05:18:11;;;;;;;4.55;1.30;;;;;;;4.72;70.49;100248.88;4917560;29;20063;-60
2021/10/23 05:20:40;;;;;;;4.03;1.63;;;;;;;4.57;70.51;100244.19;4937993;29;20544;-60
2021/10/23 05:23:12;;;;;;;3.97;1.45;;;;;;;4.57;70.57;100253.44;4955146;29;20051;-60
2021/10/23 05:25:44;;;;;;;4.70;1.55;;;;;;;4.60;71.18;100253.53;4955661;29;20405;-60
2021/10/23 05:28:14;;;;;;;3.50;1.42;;;;;;;4.70;71.39;100255.56;4952590;29;20053;-61
2021/10/23 05:30:43;;;;;;;4.43;1.40;;;;;;;4.61;70.70;100261.16;4955313;29;20086;-62
2021/10/23 05:33:15;;;;;;;4.50;1.40;;;;;;;4.60;71.34;100273.75;4945600;29;20039;-60
2021/10/23 05:35:45;;;;;;;3.78;1.40;;;;;;;4.61;70.95;100271.25;4954992;29;20146;-61
2021/10/23 05:38:14;;;;;;;6.70;1.55;;;;;;;4.60;71.20;100278.81;4954066;29;20075;-60
2021/10/23 05:40:45;;;;;;;3.25;1.58;;;;;;;4.64;71.81;100275.56;4955092;29;20494;-60
2021/10/23 05:43:17;;;;;;;3.60;1.67;;;;;;;4.71;71.94;100282.53;4955596;29;20051;-60
2021/10/23 05:45:47;;;;;;;6.18;1.60;;;;;;;4.81;71.58;100282.03;4953184;29;20047;-61
2021/10/23 05:48:23;;;;;;;3.33;1.48;;;;;;;4.80;71.55;100287.88;4955131;29;20092;-60
2021/10/23 05:50:55;;;;;;;5.63;1.80;;;;;;;4.89;71.89;100285.66;4955401;29;20548;-60
2021/10/23 05:53:28;;;;;;;4.20;1.73;;;;;;;5.01;71.83;100296.16;4955478;29;20075;-60
2021/10/23 05:55:59;;;;;;;5.53;1.88;;;;;;;5.12;72.30;100294.81;4954127;29;20449;-60
2021/10/23 05:58:31;;;;;;;5.20;1.85;;;;;;;5.47;72.59;100297.53;4954869;29;20051;-60
2021/10/23 06:01:06;;;;;;;4.25;1.63;;;;;;;5.68;71.96;100295.63;4953698;29;20048;-60
2021/10/23 06:03:37;;;;;;;4.40;1.42;;;;;;;5.95;71.97;100298.97;4954215;28;20500;-61
2021/10/23 06:06:09;;;;;;;4.80;1.40;;;;;;;6.24;71.16;100304.84;4954802;29;20047;-60
2021/10/23 06:08:39;;;;;;;4.10;1.55;;;;;;;6.56;70.70;100304.81;4954775;29;20047;-61
2021/10/23 06:11:13;;;;;;;7.03;1.80;;;;;;;6.89;69.83;100316.59;4938599;29;20087;-60
2021/10/23 06:13:47;;;;;;;2.75;1.30;;;;;;;7.11;69.34;100311.22;4955594;29;20039;-60
2021/10/23 06:16:22;;;;;;;4.90;1.40;;;;;;;7.28;69.19;100317.53;4953994;29;20035;-60
2021/10/23 06:18:52;;;;;;;3.35;1.30;;;;;;;7.42;68.03;100314.50;4953299;29;20047;-61
2021/10/23 06:21:24;;;;;;;3.20;1.48;;;;;;;7.42;68.27;100318.72;4953548;29;20047;-60
2021/10/23 06:23:53;;;;;;;3.83;1.90;;;;;;;7.51;67.54;100313.81;4952631;29;20043;-60
2021/10/23 06:26:24;;;;;;;3.88;1.80;;;;;;;7.53;68.13;100317.28;4954989;29;20102;-60
2021/10/23 06:28:57;;;;;;;4.30;1.45;;;;;;;7.69;67.79;100324.38;4955895;29;20074;-60
2021/10/23 06:31:29;;;;;;;4.13;1.60;;;;;;;7.86;67.92;100329.81;4955078;29;20098;-60
2021/10/23 06:34:01;;;;;;;6.85;2.38;;;;;;;8.01;66.92;100342.84;4944086;29;20048;-60
2021/10/23 06:36:30;;;;;;;5.00;1.75;;;;;;;8.07;66.77;100346.34;4951811;29;20051;-61
2021/10/23 06:38:59;;;;;;;5.45;1.40;;;;;;;8.17;66.30;100355.03;4963901;28;20039;-61
2021/10/23 06:41:31;;;;;;;4.80;1.77;;;;;;;8.16;66.32;100353.28;4952282;29;20126;-60
2021/10/23 06:44:00;;;;;;;9.20;2.03;;;;;;;8.29;65.83;100360.38;4950068;29;20040;-60
2021/10/23 06:46:33;;;;;;;5.35;1.73;;;;;;;8.39;65.10;100362.28;4955660;29;20133;-60
2021/10/23 06:49:03;;;;;;;4.82;1.60;;;;;;;8.48;65.59;100366.66;4955561;29;20107;-60
2021/10/23 06:51:35;;;;;;;5.28;2.50;;;;;;;8.57;65.34;100377.00;4954757;29;20048;-60
2021/10/23 06:54:06;;;;;;;3.58;1.70;;;;;;;8.73;64.59;100382.38;4954365;29;20047;-60
2021/10/23 06:56:37;;;;;;;3.70;1.50;;;;;;;8.68;64.61;100370.44;4954104;29;20062;-61
2021/10/23 06:59:10;;;;;;;4.22;1.45;;;;;;;8.87;64.69;100397.06;4950530;29;20047;-60
2021/10/23 07:01:42;;;;;;;5.05;1.88;;;;;;;8.95;63.57;100400.63;4955551;29;20047;-60
2021/10/23 07:04:14;;;;;;;3.38;1.38;;;;;;;9.09;64.58;100410.22;4956256;29;20062;-60
2021/10/23 07:06:47;;;;;;;2.45;1.17;;;;;;;9.14;63.74;100406.00;4948293;29;20044;-60
2021/10/23 07:09:20;;;;;;;3.58;1.40;;;;;;;9.22;63.68;100417.19;4954787;29;20035;-60
2021/10/23 07:11:51;;;;;;;2.85;1.55;;;;;;;9.29;62.86;100411.38;4955349;29;20055;-60
2021/10/23 07:14:23;;;;;;;3.33;1.38;;;;;;;9.33;62.63;100410.56;4954046;29;20454;-60
2021/10/23 07:16:58;;;;;;;4.60;1.45;;;;;;;9.42;62.46;100400.56;4955815;28;20047;-60
2021/10/23 07:19:27;;;;;;;5.57;1.40;;;;;;;9.61;62.32;100401.69;4959422;29;20061;-61
2021/10/23 07:21:57;;;;;;;2.92;1.10;;;;;;;9.71;61.55;100412.88;4959528;29;20098;-60
2021/10/23 07:24:32;;;;;;;3.70;1.27;;;;;;;9.89;61.74;100408.88;4959157;29;20532;-60
2021/10/23 07:27:03;;;;;;;4.45;2.03;;;;;;;10.02;60.98;100410.75;4959115;29;20050;-60
2021/10/23 07:29:35;;;;;;;4.70;1.35;;;;;;;9.88;60.53;100396.13;4959093;29;20055;-60
2021/10/23 07:32:08;;;;;;;4.53;1.35;;;;;;;10.14;60.68;100434.72;4958995;29;20047;-60
2021/10/23 07:34:38;;;;;;;3.75;1.50;;;;;;;10.11;60.53;100435.50;4959287;29;20051;-60
2021/10/23 07:37:10;;;;;;;4.60;1.58;;;;;;;10.17;60.00;100442.44;4958750;29;20067;-60
2021/10/23 07:39:40;;;;;;;4.57;1.35;;;;;;;10.17;60.65;100456.06;4958818;29;20130;-60
2021/10/23 07:42:13;;;;;;;5.70;1.63;;;;;;;10.00;60.03;100426.88;4959088;29;20457;-60
2021/10/23 07:44:45;;;;;;;2.40;1.23;;;;;;;10.12;60.27;100450.03;4958781;29;20051;-60
2021/10/23 07:47:18;;;;;;;5.25;1.40;;;;;;;10.11;60.27;100445.72;4959041;29;20461;-60
2021/10/23 07:49:50;;;;;;;4.43;1.40;;;;;;;10.26;60.08;100445.09;4958953;29;20528;-60
2021/10/23 07:52:20;;;;;;;3.53;1.52;;;;;;;10.39;60.83;100452.91;4935671;29;20046;-61
2021/10/23 07:54:50;;;;;;;5.25;1.58;;;;;;;10.48;59.84;100427.53;4962058;28;20039;-60
2021/10/23 07:57:21;;;;;;;5.15;1.50;;;;;;;10.62;59.56;100448.97;4956951;29;20412;-61
2021/10/23 07:59:50;;;;;;;5.75;1.50;;;;;;;10.73;59.77;100443.94;4955488;29;20047;-61
2021/10/23 08:02:19;;;;;;;4.65;1.50;;;;;;;10.95;59.67;100450.13;4955530;29;20047;-61
2021/10/23 08:04:49;;;;;;;2.50;1.38;;;;;;;11.13;59.26;100450.34;4954093;29;20094;-61
2021/10/23 08:07:19;;;;;;;4.40;1.50;;;;;;;11.26;58.69;100441.91;4955806;29;20039;-60
2021/10/23 08:09:49;;;;;;;3.10;1.48;;;;;;;11.35;58.37;100442.00;4955817;29;20039;-61
2021/10/23 08:12:18;;;;;;;4.95;1.60;;;;;;;11.49;57.82;100439.56;4955325;29;20046;-62
2021/10/23 08:14:49;;;;;;;3.23;1.77;;;;;;;11.60;57.08;100443.91;4957709;29;20051;-61
2021/10/23 08:17:18;;;;;;;4.68;1.50;;;;;;;11.79;56.79;100450.91;4956321;29;20071;-60
2021/10/23 08:19:46;;;;;;;3.88;1.85;;;;;;;11.85;56.58;100456.03;4956238;28;20055;-61
2021/10/23 08:22:16;;;;;;;3.67;1.70;;;;;;;11.99;56.20;100459.56;4956395;29;20054;-60
2021/10/23 08:24:45;;;;;;;;;;;;;;;12.15;56.15;100467.31;4957848;29;20543;-61
2021/10/23 08:27:14;;;;;;;4.22;1.50;;;;;;;12.22;55.91;100477.59;4957318;28;19923;-61
2021/10/23 08:29:44;;;;;;;5.97;1.50;;;;;;;12.14;54.91;100458.78;4958185;29;20497;-61
2021/10/23 08:32:16;;;;;;;6.50;1.50;;;;;;;12.18;54.42;100469.91;4957792;29;20067;-60
2021/10/23 08:34:45;;;;;;;3.10;1.17;;;;;;;12.27;54.14;100459.69;4954806;29;20039;-60
2021/10/23 08:37:15;;;;;;;5.75;1.55;;;;;;;12.28;53.39;100456.31;4956788;29;20060;-60
2021/10/23 08:39:44;;;;;;;1.23;0.82;;;;;;;12.41;53.27;100464.03;4956181;29;20035;-61
2021/10/23 08:42:13;;;;;;;;;;;;;;;12.60;53.30;100462.41;4953431;29;20071;-61
2021/10/23 08:44:44;;;;;;;4.47;1.38;;;;;;;12.53;52.17;100468.34;4954357;29;19981;-61
2021/10/23 08:47:14;;;;;;;3.78;1.35;;;;;;;12.42;51.71;100464.91;4952436;29;20047;-60
2021/10/23 08:49:45;;;;;;;5.32;1.60;;;;;;;12.37;51.71;100469.13;4951899;29;20047;-61
2021/10/23 08:52:18;;;;;;;3.03;1.20;;;;;;;12.36;50.94;100469.97;4955109;29;20046;-60
2021/10/23 08:54:51;;;;;;;4.65;1.58;;;;;;;12.56;50.38;100463.25;4948590;29;20093;-60
2021/10/23 08:57:25;;;;;;;2.78;1.30;;;;;;;12.66;50.13;100459.88;4937924;29;20148;-61
2021/10/23 08:59:59;;;;;;;4.10;1.35;;;;;;;12.90;50.49;100459.94;4947389;29;20130;-60
2021/10/23 09:02:31;;;;;;;5.85;1.42;;;;;;;12.97;49.67;100463.38;4940155;29;20091;-60
2021/10/23 09:05:03;;;;;;;4.10;1.40;;;;;;;13.14;49.62;100470.28;4954797;29;20063;-61
2021/10/23 09:07:33;;;;;;;2.17;1.10;;;;;;;13.29;49.16;100461.75;4956091;29;20043;-61
2021/10/23 09:10:06;;;;;;;4.13;1.10;;;;;;;13.50;48.58;100463.47;4952683;29;20039;-60
2021/10/23 09:12:38;;;;;;;3.10;1.15;;;;;;;13.59;48.32;100460.88;4956456;29;20039;-61
2021/10/23 09:15:12;;;;;;;3.63;1.65;;;;;;;13.25;47.62;100477.97;4954951;29;20513;-60
2021/10/23 09:17:42;;;;;;;6.05;1.58;;;;;;;12.96;47.20;100475.31;4955356;28;20098;-61
2021/10/23 09:20:14;;;;;;;5.47;1.30;;;;;;;12.92;47.52;100473.59;4951996;29;20078;-62
2021/10/23 09:22:44;;;;;;;5.10;1.70;;;;;;;12.69;47.33;100476.09;4955807;29;20047;-60
2021/10/23 09:25:18;;;;;;;4.28;1.15;;;;;;;12.69;46.75;100475.25;4956653;29;20078;-61
2021/10/23 09:27:50;;;;;;;3.55;1.08;;;;;;;12.65;47.60;100488.88;4943474;29;20454;-62
2021/10/23 09:30:21;;;;;;;3.80;1.20;;;;;;;12.33;47.45;100463.16;4945911;28;20071;-60
2021/10/23 09:32:55;;;;;;;3.47;1.30;;;;;;;12.47;48.34;100486.25;4954035;29;20039;-61
2021/10/23 09:35:29;;;;;;;3.63;1.13;;;;;;;12.41;48.49;100484.50;4955085;29;20057;-61
2021/10/23 09:38:00;;;;;;;3.97;1.50;;;;;;;12.32;48.27;100484.47;4949021;29;20043;-61
2021/10/23 09:40:31;;;;;;;3.10;1.25;;;;;;;12.28;48.65;100494.69;4954027;28;20047;-61
2021/10/23 09:43:14;;;;;;;2.03;1.10;;;;;;;12.18;48.95;100490.38;4955504;29;20054;-60
2021/10/23 09:46:04;;;;;;;2.67;1.13;;;;;;;12.10;49.33;100496.28;4948889;29;20047;-60
2021/10/23 09:48:34;;;;;;;;;;;;;;;12.03;49.51;100494.53;4953986;29;20134;-61
2021/10/23 09:51:20;;;;;;;2.55;1.35;;;;;;;12.27;49.72;100496.41;4954791;29;19922;-61
2021/10/23 09:53:51;;;;;;;6.82;1.67;;;;;;;12.51;50.78;100499.06;4952761;29;20047;-60
2021/10/23 09:56:23;;;;;;;2.70;1.20;;;;;;;12.65;50.67;100494.88;4950377;29;20039;-61
2021/10/23 09:58:57;;;;;;;3.20;1.48;;;;;;;12.75;50.53;100486.38;4956323;29;20089;-60
2021/10/23 10:01:27;;;;;;;5.30;1.77;;;;;;;12.73;50.28;100498.31;4956518;29;20138;-60
2021/10/23 10:03:58;;;;;;;2.70;1.13;;;;;;;12.70;50.50;100497.44;4954774;29;20050;-61
2021/10/23 10:06:30;;;;;;;3.33;1.50;;;;;;;12.63;49.41;100511.06;4951793;29;20055;-60
2021/10/23 10:09:00;;;;;;;4.03;1.50;;;;;;;12.58;49.59;100494.81;4949707;29;20050;-61
2021/10/23 10:11:29;;;;;;;3.15;1.67;;;;;;;12.28;49.58;100472.53;4947224;29;20047;-61
2021/10/23 10:13:59;;;;;;;7.38;1.30;;;;;;;12.38;49.58;100504.97;4941409;29;20134;-60
2021/10/23 10:16:30;;;;;;;3.80;1.35;;;;;;;12.21;49.60;100495.50;4955134;29;20074;-60
2021/10/23 10:19:00;;;;;;;2.35;1.00;;;;;;;12.29;49.12;100504.94;4956346;29;20047;-60
2021/10/23 10:21:37;;;;;;;3.75;1.20;;;;;;;12.16;49.03;100479.28;4954159;29;20050;-60
2021/10/23 10:24:22;;;;;;;4.35;1.48;;;;;;;12.40;48.92;100503.31;4954401;29;20116;-60
2021/10/23 10:27:00;;;;;;;4.13;1.20;;;;;;;12.33;49.53;100500.69;4951472;29;20055;-61
2021/10/23 10:29:43;;;;;;;3.35;1.63;;;;;;;12.32;49.45;100501.53;4954440;29;20059;-60
2021/10/23 10:32:20;;;;;;;4.43;1.38;;;;;;;12.45;49.45;100495.66;4950322;29;20118;-60
2021/10/23 10:43:17;;;;;;;4.80;1.10;;;;;;;13.23;48.39;100485.66;4947057;29;20047;-60
2021/10/23 10:45:56;;;;;;;3.72;1.42;;;;;;;13.18;47.06;100482.22;4937900;29;20102;-60
2021/10/23 10:48:44;;;;;;;1.83;1.10;;;;;;;13.08;46.38;100484.75;4937744;29;20051;-61
2021/10/23 10:51:17;;;;;;;3.10;1.13;;;;;;;13.17;46.58;100490.75;4952515;28;20317;-60
2021/10/23 10:54:07;;;;;;;3.80;1.45;;;;;;;13.11;46.29;100480.50;4955527;29;20051;-60
2021/10/23 10:56:51;;;;;;;3.90;1.70;;;;;;;13.16;46.70;100489.06;4937996;29;20066;-61
2021/10/23 10:59:42;;;;;;;2.60;1.25;;;;;;;13.08;46.24;100487.34;4955508;29;20168;-60
2021/10/23 11:02:15;;;;;;;2.13;1.00;;;;;;;12.93;46.11;100485.59;4953260;29;20050;-60
2021/10/23 11:05:09;;;;;;;4.68;1.30;;;;;;;12.98;46.15;100486.41;4954861;29;20052;-62
2021/10/23 11:08:04;;;;;;;4.50;1.60;;;;;;;12.88;46.06;100491.53;4951730;29;20053;-61
2021/10/23 11:10:58;;;;;;;3.97;1.13;;;;;;;12.87;46.09;100485.53;4954863;29;20044;-60
2021/10/23 11:13:28;;;;;;;3.55;1.20;;;;;;;12.84;46.33;100479.56;4955116;29;20058;-61
2021/10/23 11:15:58;;;;;;;3.42;1.27;;;;;;;12.87;47.15;100475.31;4953660;29;20070;-61
2021/10/23 11:18:28;;;;;;;2.25;1.10;;;;;;;12.85;47.50;100469.31;4955289;29;20409;-60
2021/10/23 11:20:59;;;;;;;4.63;1.50;;;;;;;13.03;47.49;100479.59;4955068;29;20063;-61
2021/10/23 11:23:28;;;;;;;2.70;1.08;;;;;;;13.12;47.23;100482.25;4953983;29;20516;-61
2021/10/23 11:26:06;;;;;;;3.53;1.15;;;;;;;13.01;46.80;100478.75;4954175;29;20047;-60
2021/10/23 11:28:40;;;;;;;3.75;1.30;;;;;;;12.85;46.78;100492.38;4946893;28;20051;-61
2021/10/23 11:31:18;;;;;;;3.13;1.40;;;;;;;12.84;47.06;100480.41;4949358;29;20035;-61
2021/10/23 11:33:48;;;;;;;3.28;1.40;;;;;;;13.14;46.58;100465.16;4954045;28;20347;-61
2021/10/23 11:36:18;;;;;;;4.05;1.38;;;;;;;13.74;46.03;100469.44;4949089;29;20046;-60
2021/10/23 11:38:48;;;;;;;3.95;1.48;;;;;;;14.20;45.42;100469.34;4953191;29;20517;-61
2021/10/23 11:41:25;;;;;;;4.20;1.52;;;;;;;14.48;45.15;100456.44;4952678;28;20044;-60
2021/10/23 11:44:06;;;;;;;3.22;1.40;;;;;;;14.80;44.75;100476.00;4953566;29;20036;-61
2021/10/23 11:46:36;;;;;;;3.35;1.48;;;;;;;15.13;44.04;100488.66;4944347;29;20040;-61
2021/10/23 11:49:06;;;;;;;;;;;;;;;15.41;43.34;100485.88;4953477;29;20074;-61
2021/10/23 11:51:34;;;;;;;;;;;;;;;15.75;43.14;100485.63;4954212;29;19929;-61
2021/10/23 11:54:05;;;;;;;1.95;1.20;;;;;;;15.52;42.17;100451.53;4955174;29;20280;-61
2021/10/23 11:56:39;;;;;;;5.90;1.45;;;;;;;15.62;41.96;100490.03;4954952;29;20072;-61
2021/10/23 11:59:09;;;;;;;3.85;1.42;;;;;;;14.70;41.79;100467.47;4954943;29;20498;-61
2021/10/23 12:01:40;;;;;;;1.85;1.15;;;;;;;14.23;42.55;100490.72;4950762;28;20102;-61
2021/10/23 12:04:09;;;;;;;7.30;1.70;;;;;;;14.09;43.15;100492.47;4951446;29;20055;-61
2021/10/23 12:06:40;;;;;;;4.25;1.63;;;;;;;14.04;44.30;100489.06;4955635;29;20051;-60